Time;durP1;ratioP1;P1;durP2;ratioP2;P2;SDS_P1;SDS_P2;PMS_P1;PMS_P2;Temp;Humidity;BMP_temperature;BMP_pressure;BME280_temperature;BME280_humidity;BME280_pressure;Samples;Min_cycle;Max_cycle;Signal;HPM_P1;HPM_P2
2021/10/20 00:01:56;;;;;;;9.63;1.63;;;26.00;28.80;;;;;;4969918;28;20441;-66
2021/10/20 00:04:22;;;;;;;7.20;1.50;;;25.90;28.80;;;;;;4952311;28;20230;-67
2021/10/20 00:06:51;;;;;;;6.60;1.30;;;26.00;29.00;;;;;;4963707;28;20079;-67
2021/10/20 00:09:17;;;;;;;9.52;1.20;;;25.90;28.20;;;;;;4949636;28;20086;-68
2021/10/20 00:11:43;;;;;;;7.10;1.63;;;25.80;28.30;;;;;;4949192;28;20084;-68
2021/10/20 00:14:10;;;;;;;8.98;1.67;;;25.60;28.60;;;;;;4949917;28;20079;-66
2021/10/20 00:16:36;;;;;;;5.57;1.67;;;25.50;28.80;;;;;;4964527;28;20084;-67
2021/10/20 00:19:03;;;;;;;8.27;1.88;;;25.50;28.60;;;;;;4966096;28;20084;-65
2021/10/20 00:21:30;;;;;;;4.53;1.42;;;25.40;28.80;;;;;;4950681;28;20079;-64
2021/10/20 00:23:56;;;;;;;15.45;2.58;;;25.40;29.50;;;;;;4951508;28;20118;-64
2021/10/20 00:26:24;;;;;;;6.18;1.52;;;25.40;29.10;;;;;;4967323;28;20154;-66
2021/10/20 00:28:50;;;;;;;6.32;1.38;;;25.20;28.80;;;;;;4950900;28;20452;-65
2021/10/20 00:31:18;;;;;;;6.35;1.70;;;25.10;29.70;;;;;;4952085;28;20171;-68
2021/10/20 00:33:44;;;;;;;6.80;1.67;;;25.10;28.90;;;;;;4951194;28;20087;-67
2021/10/20 00:36:11;;;;;;;10.15;1.85;;;25.10;29.40;;;;;;4966486;28;20104;-69
2021/10/20 00:38:38;;;;;;;13.77;1.70;;;25.10;30.40;;;;;;4966735;28;20087;-66
2021/10/20 00:41:04;;;;;;;9.10;2.25;;;24.90;30.50;;;;;;4951017;28;20076;-66
2021/10/20 00:43:31;;;;;;;16.55;1.83;;;24.80;30.80;;;;;;4950337;28;20072;-66
2021/10/20 00:45:57;;;;;;;14.13;1.85;;;24.80;30.00;;;;;;4967026;28;20127;-66
2021/10/20 00:48:24;;;;;;;21.52;2.17;;;24.70;30.50;;;;;;4935063;28;20075;-69
2021/10/20 00:50:50;;;;;;;24.58;2.05;;;24.70;31.00;;;;;;4950700;28;20175;-67
2021/10/20 00:53:16;;;;;;;8.00;2.33;;;24.50;33.60;;;;;;4959785;28;20166;-70
2021/10/20 00:55:43;;;;;;;11.77;3.15;;;24.50;32.30;;;;;;4960247;28;20550;-71
2021/10/20 00:58:10;;;;;;;10.00;2.50;;;24.40;32.30;;;;;;4951057;28;20130;-70
2021/10/20 01:00:36;;;;;;;9.52;2.10;;;24.30;31.80;;;;;;4951009;28;20087;-65
2021/10/20 01:03:03;;;;;;;5.97;1.83;;;24.30;32.60;;;;;;4966310;28;20131;-71
2021/10/20 01:05:29;;;;;;;12.00;1.80;;;24.20;32.20;;;;;;4950414;28;20075;-66
2021/10/20 01:07:55;;;;;;;13.50;1.90;;;24.10;33.10;;;;;;4966512;28;20090;-67
2021/10/20 01:10:22;;;;;;;12.43;2.08;;;24.10;33.30;;;;;;4966200;28;20080;-66
2021/10/20 01:12:49;;;;;;;12.77;2.00;;;24.00;33.60;;;;;;4966267;28;20146;-63
2021/10/20 01:15:17;;;;;;;13.85;2.42;;;23.90;33.40;;;;;;4966966;28;20170;-63
2021/10/20 01:17:43;;;;;;;8.65;1.90;;;23.80;33.50;;;;;;4950365;28;20106;-65
2021/10/20 01:20:10;;;;;;;14.57;2.35;;;23.70;34.40;;;;;;4950457;28;20075;-67
2021/10/20 01:22:37;;;;;;;10.35;2.28;;;23.70;34.30;;;;;;4954499;28;20534;-67
2021/10/20 01:25:05;;;;;;;9.75;2.33;;;23.60;34.60;;;;;;4966094;28;20107;-64
2021/10/20 01:27:31;;;;;;;10.70;2.80;;;23.50;35.00;;;;;;4949800;28;20159;-66
2021/10/20 01:30:04;;;;;;;12.45;2.60;;;23.40;32.30;;;;;;4966763;28;20098;-66
2021/10/20 01:32:30;;;;;;;13.30;2.72;;;23.50;32.70;;;;;;4951036;28;20157;-68
2021/10/20 01:34:57;;;;;;;17.42;3.30;;;23.40;33.40;;;;;;4966553;28;20087;-63
2021/10/20 01:37:25;;;;;;;15.45;2.67;;;23.30;34.40;;;;;;4966015;28;20079;-67
2021/10/20 01:39:56;;;;;;;19.63;2.92;;;23.20;35.40;;;;;;4952358;28;20586;-64
2021/10/20 01:42:27;;;;;;;17.98;2.85;;;23.10;36.60;;;;;;4950317;28;20127;-66
2021/10/20 01:44:54;;;;;;;24.17;3.65;;;22.90;36.20;;;;;;4951519;28;20111;-65
2021/10/20 01:47:21;;;;;;;44.00;4.47;;;22.80;37.90;;;;;;4949556;28;20084;-65
2021/10/20 01:49:48;;;;;;;36.63;4.10;;;22.70;37.20;;;;;;4948420;28;20102;-66
2021/10/20 01:52:14;;;;;;;44.97;4.03;;;22.70;38.00;;;;;;4949367;28;20080;-65
2021/10/20 01:54:41;;;;;;;48.85;4.65;;;22.50;37.90;;;;;;4966413;28;20076;-67
2021/10/20 01:57:07;;;;;;;31.20;3.90;;;22.50;38.20;;;;;;4951308;28;20104;-65
2021/10/20 01:59:33;;;;;;;38.88;4.18;;;22.40;38.40;;;;;;4950645;28;20087;-66
2021/10/20 02:02:00;;;;;;;48.55;4.30;;;22.30;38.70;;;;;;4934041;28;20178;-67
2021/10/20 02:04:26;;;;;;;33.88;4.57;;;22.30;39.30;;;;;;4949888;28;20899;-68
2021/10/20 02:06:53;;;;;;;32.17;4.43;;;22.20;38.80;;;;;;4948372;28;20110;-65
2021/10/20 02:09:19;;;;;;;28.80;4.40;;;22.10;39.60;;;;;;4964157;28;20078;-67
2021/10/20 02:11:46;;;;;;;39.25;4.40;;;22.10;39.10;;;;;;4949270;28;20079;-66
2021/10/20 02:14:12;;;;;;;;;;;22.10;40.00;;;;;;4964961;28;20107;-66
2021/10/20 02:16:39;;;;;;;36.88;4.75;;;22.00;39.80;;;;;;4952903;28;19970;-67
2021/10/20 02:19:06;;;;;;;40.88;5.05;;;22.00;40.40;;;;;;4967132;28;20577;-67
2021/10/20 02:21:32;;;;;;;34.50;4.95;;;21.90;39.40;;;;;;4953131;28;20100;-63
2021/10/20 02:24:00;;;;;;;22.02;3.92;;;21.90;40.20;;;;;;4955238;28;20087;-66
2021/10/20 02:26:27;;;;;;;40.60;4.80;;;21.80;40.10;;;;;;4969938;28;20130;-69
2021/10/20 02:28:53;;;;;;;;;;;21.80;39.60;;;;;;4959543;28;20261;-68
2021/10/20 02:31:19;;;;;;;41.08;5.03;;;21.70;39.20;;;;;;4954538;28;19990;-68
2021/10/20 02:33:45;;;;;;;;;;;21.70;41.10;;;;;;4954006;28;20598;-66
2021/10/20 02:36:11;;;;;;;37.80;5.22;;;21.60;40.40;;;;;;4969414;28;19959;-68
2021/10/20 02:38:37;;;;;;;;;;;21.60;40.20;;;;;;4954882;28;20096;-67
2021/10/20 02:41:04;;;;;;;31.17;5.78;;;21.50;40.20;;;;;;4951860;28;20028;-65
2021/10/20 02:43:35;;;;;;;28.90;5.20;;;21.40;40.60;;;;;;4966409;28;20072;-64
2021/10/20 02:46:02;;;;;;;28.55;5.75;;;21.50;41.00;;;;;;4950357;28;20402;-66
2021/10/20 02:48:29;;;;;;;39.97;5.60;;;21.40;41.60;;;;;;4951967;28;20552;-67
2021/10/20 02:50:55;;;;;;;37.53;6.07;;;21.30;41.60;;;;;;4936697;28;20107;-68
2021/10/20 02:53:22;;;;;;;43.50;5.80;;;21.30;41.50;;;;;;4968933;28;20080;-68
2021/10/20 02:55:48;;;;;;;56.15;6.10;;;21.30;41.70;;;;;;4952942;28;20079;-66
2021/10/20 02:58:14;;;;;;;;;;;21.20;41.80;;;;;;4969443;28;20227;-69
2021/10/20 03:00:40;;;;;;;49.00;5.85;;;21.10;42.70;;;;;;4969435;28;19967;-69
2021/10/20 03:03:07;;;;;;;45.25;6.65;;;21.10;43.20;;;;;;4954105;28;20158;-67
2021/10/20 03:05:33;;;;;;;50.17;6.65;;;21.00;42.90;;;;;;4953920;28;20087;-67
2021/10/20 03:08:00;;;;;;;44.45;6.25;;;21.00;42.90;;;;;;4952752;28;20107;-66
2021/10/20 03:10:26;;;;;;;41.03;5.30;;;21.00;42.50;;;;;;4952804;28;20075;-66
2021/10/20 03:12:53;;;;;;;42.05;5.90;;;20.90;42.10;;;;;;4968340;28;20090;-66
2021/10/20 03:15:19;;;;;;;50.50;6.43;;;20.80;42.30;;;;;;4968792;28;20076;-64
2021/10/20 03:17:45;;;;;;;;;;;20.80;44.00;;;;;;4969496;28;20100;-66
2021/10/20 03:20:11;;;;;;;43.65;5.50;;;20.70;43.20;;;;;;4955777;28;20006;-65
2021/10/20 03:22:43;;;;;;;49.95;6.25;;;20.60;43.10;;;;;;4969106;28;20075;-67
2021/10/20 03:25:12;;;;;;;63.80;7.25;;;20.60;43.10;;;;;;4966696;28;20079;-64
2021/10/20 03:27:47;;;;;;;43.97;5.32;;;20.60;43.50;;;;;;4935385;28;20083;-68
2021/10/20 03:30:15;;;;;;;43.35;5.93;;;20.50;43.70;;;;;;4953443;28;20119;-65
2021/10/20 03:32:42;;;;;;;59.03;7.18;;;20.60;45.00;;;;;;4952618;28;20084;-66
2021/10/20 03:35:10;;;;;;;44.65;6.35;;;20.50;44.20;;;;;;4952786;28;20072;-68
2021/10/20 03:37:36;;;;;;;46.85;6.95;;;20.50;44.10;;;;;;4967936;28;20166;-69
2021/10/20 03:40:04;;;;;;;47.55;7.22;;;20.40;45.00;;;;;;4973723;28;20530;-67
2021/10/20 03:42:31;;;;;;;49.72;7.03;;;20.40;44.60;;;;;;4968238;28;20534;-65
2021/10/20 03:44:58;;;;;;;35.45;6.68;;;20.40;46.50;;;;;;4968120;28;20201;-65
2021/10/20 03:47:25;;;;;;;38.90;6.47;;;20.40;45.70;;;;;;4957422;28;20091;-67
2021/10/20 03:49:52;;;;;;;54.75;7.47;;;20.30;45.10;;;;;;4967990;28;20084;-67
2021/10/20 03:52:19;;;;;;;61.72;8.68;;;20.30;45.00;;;;;;4951612;28;20096;-66
2021/10/20 03:54:49;;;;;;;51.15;9.65;;;20.20;45.00;;;;;;4954777;28;20096;-66
2021/10/20 03:57:15;;;;;;;40.72;9.20;;;20.20;45.00;;;;;;4935492;28;20083;-66
2021/10/20 03:59:43;;;;;;;58.28;11.80;;;20.20;45.70;;;;;;4967592;28;20437;-64
2021/10/20 04:02:10;;;;;;;62.67;12.32;;;20.20;45.60;;;;;;4950830;28;20478;-70
2021/10/20 04:04:37;;;;;;;55.60;12.82;;;20.20;45.10;;;;;;4951678;28;20146;-71
2021/10/20 04:07:04;;;;;;;54.10;13.20;;;20.10;44.90;;;;;;4935325;28;20175;-66
2021/10/20 04:09:30;;;;;;;75.88;16.75;;;20.10;44.60;;;;;;4950853;28;20584;-68
2021/10/20 04:11:56;;;;;;;62.85;16.85;;;20.10;44.60;;;;;;4951355;28;20138;-68
2021/10/20 04:14:22;;;;;;;;;;;20.10;44.50;;;;;;4952437;28;20079;-67
2021/10/20 04:16:49;;;;;;;49.05;14.35;;;20.10;44.40;;;;;;4966987;28;19997;-69
2021/10/20 04:19:15;;;;;;;;;;;20.00;45.30;;;;;;4951519;28;20082;-65
2021/10/20 04:21:41;;;;;;;59.25;14.27;;;20.00;46.20;;;;;;4967154;28;20401;-69
2021/10/20 04:24:07;;;;;;;;;;;19.90;46.20;;;;;;4951876;28;20517;-67
2021/10/20 04:26:34;;;;;;;48.75;13.35;;;19.90;46.40;;;;;;4967486;28;19958;-65
2021/10/20 04:29:00;;;;;;;63.22;13.35;;;19.90;45.70;;;;;;4951867;28;20142;-67
2021/10/20 04:31:27;;;;;;;58.10;13.32;;;19.80;45.90;;;;;;4952048;28;20214;-66
2021/10/20 04:33:53;;;;;;;60.38;13.23;;;19.90;45.90;;;;;;4951493;28;20106;-66
2021/10/20 04:36:20;;;;;;;59.33;13.73;;;19.80;45.60;;;;;;4951378;28;20122;-64
2021/10/20 04:38:46;;;;;;;49.40;12.90;;;19.70;45.80;;;;;;4952021;28;20174;-67
2021/10/20 04:41:12;;;;;;;56.05;13.15;;;19.70;45.70;;;;;;4952013;28;20076;-68
2021/10/20 04:43:40;;;;;;;69.30;13.70;;;19.70;47.10;;;;;;4951924;28;20084;-66
2021/10/20 04:46:06;;;;;;;56.72;12.48;;;19.60;46.70;;;;;;4953047;28;20086;-67
2021/10/20 04:48:33;;;;;;;60.03;12.75;;;19.60;45.60;;;;;;4951286;28;20454;-68
2021/10/20 04:50:59;;;;;;;70.80;17.10;;;19.60;45.90;;;;;;4950658;28;20131;-64
2021/10/20 04:53:26;;;;;;;70.75;20.98;;;19.60;45.80;;;;;;4950727;28;20075;-67
2021/10/20 04:55:53;;;;;;;85.05;18.92;;;19.60;46.10;;;;;;4950304;28;20104;-66
2021/10/20 04:58:19;;;;;;;87.70;19.08;;;19.50;46.40;;;;;;4951933;28;20112;-67
2021/10/20 05:00:45;;;;;;;70.35;15.63;;;19.50;46.50;;;;;;4952054;28;20078;-63
2021/10/20 05:03:12;;;;;;;73.93;14.85;;;19.50;46.50;;;;;;4951127;28;20526;-63
2021/10/20 05:05:38;;;;;;;;;;;19.50;47.10;;;;;;4951296;28;20103;-63
2021/10/20 05:08:04;;;;;;;59.30;14.35;;;19.40;46.70;;;;;;4952302;28;19966;-63
2021/10/20 05:10:31;;;;;;;70.20;12.65;;;19.40;46.60;;;;;;4934726;28;20090;-64
2021/10/20 05:12:57;;;;;;;59.88;13.02;;;19.40;46.40;;;;;;4953005;28;20091;-61
2021/10/20 05:15:24;;;;;;;56.78;12.75;;;19.40;46.40;;;;;;4950791;28;20083;-60
2021/10/20 05:17:50;;;;;;;74.25;13.05;;;19.90;46.30;;;;;;4939824;28;20186;-60
2021/10/20 05:20:17;;;;;;;;;;;20.70;44.90;;;;;;4950063;28;20091;-61
2021/10/20 05:22:44;;;;;;;72.00;13.67;;;21.30;43.20;;;;;;4951539;28;19963;-62
2021/10/20 05:25:13;;;;;;;68.93;14.00;;;21.90;42.80;;;;;;4951262;28;20086;-64
2021/10/20 05:27:40;;;;;;;76.20;14.45;;;22.50;41.60;;;;;;4934793;28;20075;-62
2021/10/20 05:30:07;;;;;;;77.60;13.75;;;22.30;40.60;;;;;;4934968;28;20613;-62
2021/10/20 05:32:33;;;;;;;76.22;13.13;;;22.20;40.90;;;;;;4950007;28;20107;-64
2021/10/20 05:35:00;;;;;;;64.63;13.65;;;22.30;41.10;;;;;;4946375;28;20082;-62
2021/10/20 05:37:26;;;;;;;50.95;13.05;;;22.40;41.00;;;;;;4950690;28;20125;-65
2021/10/20 05:39:53;;;;;;;67.93;12.65;;;22.30;42.00;;;;;;4948736;28;20072;-65
2021/10/20 05:42:20;;;;;;;71.43;12.52;;;22.10;42.60;;;;;;4949091;28;20520;-61
2021/10/20 05:44:47;;;;;;;67.38;12.98;;;22.10;42.30;;;;;;4949980;28;20091;-63
2021/10/20 05:47:14;;;;;;;60.88;12.50;;;22.10;42.30;;;;;;4950330;28;20104;-63
2021/10/20 05:49:40;;;;;;;65.72;13.10;;;22.10;43.10;;;;;;4951004;28;20542;-63
2021/10/20 05:52:08;;;;;;;49.70;14.13;;;22.00;42.70;;;;;;4954098;28;20087;-66
2021/10/20 05:54:34;;;;;;;59.50;13.43;;;22.00;42.10;;;;;;4953768;28;20133;-63
2021/10/20 05:57:00;;;;;;;73.45;14.32;;;22.00;42.00;;;;;;4952518;28;20572;-66
2021/10/20 05:59:27;;;;;;;57.53;13.85;;;21.90;41.80;;;;;;4969508;28;20092;-63
2021/10/20 06:01:53;;;;;;;75.85;15.43;;;21.80;42.80;;;;;;4952435;28;20088;-62
2021/10/20 06:04:20;;;;;;;;;;;21.70;42.70;;;;;;4952868;28;20384;-62
2021/10/20 06:06:47;;;;;;;70.45;14.93;;;21.60;43.00;;;;;;4969856;28;20405;-66
2021/10/20 06:09:14;;;;;;;62.75;14.98;;;21.40;43.70;;;;;;4952056;28;20099;-65
2021/10/20 06:11:40;;;;;;;64.70;16.48;;;21.30;44.20;;;;;;4953710;28;20079;-62
2021/10/20 06:14:07;;;;;;;50.20;15.40;;;21.40;43.20;;;;;;4952213;28;20106;-61
2021/10/20 06:16:36;;;;;;;58.50;15.45;;;21.10;43.40;;;;;;4954897;28;20122;-61
2021/10/20 06:19:04;;;;;;;69.80;15.02;;;20.90;44.40;;;;;;4953238;28;20092;-65
2021/10/20 06:21:31;;;;;;;71.65;15.95;;;21.00;45.90;;;;;;4951512;28;20080;-64
2021/10/20 06:23:58;;;;;;;58.83;15.98;;;21.10;44.20;;;;;;4953688;28;20142;-62
2021/10/20 06:26:24;;;;;;;65.95;15.82;;;21.00;44.70;;;;;;4953682;28;20072;-61
2021/10/20 06:28:51;;;;;;;76.57;16.33;;;21.10;44.20;;;;;;4951282;28;20457;-66
2021/10/20 06:31:18;;;;;;;62.55;16.55;;;20.90;44.70;;;;;;4952190;28;21372;-67
2021/10/20 06:33:44;;;;;;;76.75;17.05;;;20.70;44.00;;;;;;4952216;28;20080;-63
2021/10/20 06:36:43;;;;;;;73.38;17.45;;;20.90;43.80;;;;;;4951360;28;20194;-65
2021/10/20 06:39:09;;;;;;;79.00;17.90;;;21.10;43.50;;;;;;4881542;29;20575;-65
2021/10/20 06:41:35;;;;;;;84.03;18.10;;;21.10;43.20;;;;;;4881469;29;20076;-66
2021/10/20 06:44:02;;;;;;;69.57;17.30;;;21.00;43.50;;;;;;4896608;29;20069;-66
2021/10/20 06:46:28;;;;;;;80.03;17.55;;;21.00;44.10;;;;;;4897865;29;20583;-66
2021/10/20 06:48:54;;;;;;;86.28;18.58;;;20.80;43.90;;;;;;4899564;29;20224;-65
2021/10/20 06:51:21;;;;;;;100.35;19.20;;;20.80;44.10;;;;;;4882370;29;20085;-63
2021/10/20 06:53:47;;;;;;;;;;;21.00;43.50;;;;;;4900279;29;20085;-65
2021/10/20 06:56:13;;;;;;;79.18;18.42;;;20.90;43.40;;;;;;4897271;29;19965;-65
2021/10/20 06:58:40;;;;;;;82.90;19.05;;;20.70;44.50;;;;;;4896384;29;20093;-66
2021/10/20 07:01:07;;;;;;;84.63;19.55;;;20.40;44.80;;;;;;4898833;29;20081;-65
2021/10/20 07:03:33;;;;;;;;;;;20.40;44.70;;;;;;4899375;29;20107;-62
2021/10/20 07:05:59;;;;;;;88.93;21.20;;;20.60;44.60;;;;;;4897346;29;20058;-64
2021/10/20 07:08:25;;;;;;;95.63;20.30;;;20.50;44.00;;;;;;4897090;29;20100;-62
2021/10/20 07:10:51;;;;;;;;;;;20.50;44.00;;;;;;4899444;29;20116;-64
2021/10/20 07:13:18;;;;;;;92.78;20.05;;;20.30;44.30;;;;;;4897544;29;19999;-64
2021/10/20 07:15:45;;;;;;;;;;;20.20;44.70;;;;;;4962386;28;20083;-63
2021/10/20 07:18:12;;;;;;;84.65;22.27;;;20.20;44.30;;;;;;4952757;28;19982;-64
2021/10/20 07:20:38;;;;;;;86.72;21.63;;;20.30;44.30;;;;;;4953824;28;20498;-63
2021/10/20 07:23:04;;;;;;;;;;;20.20;44.80;;;;;;4953115;28;20072;-63
2021/10/20 07:25:31;;;;;;;80.35;20.67;;;20.20;45.00;;;;;;4952805;28;20356;-65
2021/10/20 07:27:57;;;;;;;82.00;21.73;;;20.20;44.10;;;;;;4951902;28;20168;-63
2021/10/20 07:30:23;;;;;;;;;;;20.10;45.60;;;;;;4952697;28;20115;-65
2021/10/20 07:32:49;;;;;;;79.82;18.92;;;20.20;45.00;;;;;;4951578;28;20386;-62
2021/10/20 07:35:17;;;;;;;80.20;19.40;;;20.10;44.40;;;;;;4952519;28;20087;-63
2021/10/20 07:37:44;;;;;;;74.60;19.42;;;19.90;45.70;;;;;;4951620;28;20091;-65
2021/10/20 07:40:12;;;;;;;82.43;19.02;;;19.80;45.70;;;;;;4934940;28;20538;-63
2021/10/20 07:42:40;;;;;;;65.18;17.88;;;19.90;44.30;;;;;;4951298;28;20415;-62
2021/10/20 07:45:10;;;;;;;69.78;19.00;;;19.80;43.90;;;;;;4936012;28;20076;-63
2021/10/20 07:47:37;;;;;;;74.25;19.25;;;19.90;44.80;;;;;;4951031;28;20075;-62
2021/10/20 07:50:05;;;;;;;63.05;17.25;;;19.80;44.30;;;;;;4967002;28;20079;-64
2021/10/20 07:52:33;;;;;;;63.05;17.23;;;19.80;44.00;;;;;;4951753;28;20437;-63
2021/10/20 07:55:01;;;;;;;68.55;17.63;;;19.70;45.10;;;;;;4951764;28;20076;-63
2021/10/20 07:57:29;;;;;;;57.88;17.50;;;19.70;45.20;;;;;;4952342;28;20076;-67
2021/10/20 07:59:56;;;;;;;69.85;15.50;;;19.70;44.20;;;;;;4960653;28;20796;-64
2021/10/20 08:02:22;;;;;;;66.25;15.68;;;19.60;44.00;;;;;;4965352;28;20108;-63
2021/10/20 08:04:49;;;;;;;63.33;14.93;;;19.40;44.80;;;;;;4950872;28;20075;-62
2021/10/20 08:07:15;;;;;;;62.97;14.80;;;19.40;44.90;;;;;;4950576;28;20430;-65
2021/10/20 08:09:42;;;;;;;59.97;14.45;;;19.40;45.20;;;;;;4950123;28;20084;-65
2021/10/20 08:12:09;;;;;;;59.65;13.82;;;19.30;44.70;;;;;;4932621;28;20083;-64
2021/10/20 08:14:41;;;;;;;52.00;13.70;;;19.20;43.90;;;;;;4951247;28;20150;-66
2021/10/20 08:17:08;;;;;;;53.17;11.27;;;19.10;43.70;;;;;;4950747;28;20072;-62
2021/10/20 08:19:35;;;;;;;38.08;10.85;;;19.10;43.80;;;;;;4952196;28;20083;-64
2021/10/20 08:22:01;;;;;;;47.90;10.55;;;19.00;43.40;;;;;;4935129;28;20080;-61
2021/10/20 08:24:28;;;;;;;55.05;11.25;;;19.10;42.90;;;;;;4952123;28;20550;-65
2021/10/20 08:26:54;;;;;;;37.58;10.25;;;19.00;43.10;;;;;;4951453;28;20158;-64
2021/10/20 08:29:21;;;;;;;33.92;9.93;;;19.00;43.40;;;;;;4949529;28;20633;-62
2021/10/20 08:31:47;;;;;;;;;;;18.90;43.50;;;;;;4952985;28;20119;-62
2021/10/20 08:34:13;;;;;;;34.20;8.95;;;18.90;43.30;;;;;;4951738;28;19982;-63
2021/10/20 08:36:40;;;;;;;45.05;9.55;;;18.80;43.40;;;;;;4965868;28;20170;-65
2021/10/20 08:39:06;;;;;;;46.95;10.43;;;18.90;43.50;;;;;;4965746;28;20119;-64
2021/10/20 08:41:33;;;;;;;40.75;9.73;;;18.90;43.70;;;;;;4950696;28;20542;-63
2021/10/20 08:43:59;;;;;;;44.17;9.02;;;18.80;44.00;;;;;;4948575;28;20087;-65
2021/10/20 08:46:26;;;;;;;43.25;8.98;;;18.70;44.10;;;;;;4966958;28;20096;-64
2021/10/20 08:48:57;;;;;;;48.35;9.63;;;18.70;43.90;;;;;;4964501;28;20082;-63
2021/10/20 08:51:24;;;;;;;36.72;9.23;;;18.60;44.30;;;;;;4966518;28;20076;-63
2021/10/20 08:53:51;;;;;;;40.30;9.15;;;18.40;44.70;;;;;;4951035;28;20098;-62
2021/10/20 08:56:18;;;;;;;44.22;9.02;;;18.40;45.20;;;;;;4950898;28;20091;-64
2021/10/20 08:58:45;;;;;;;32.95;8.70;;;18.40;45.30;;;;;;4966479;28;20146;-63
2021/10/20 09:01:11;;;;;;;29.88;9.18;;;18.40;45.00;;;;;;4965519;28;20166;-63
2021/10/20 09:03:38;;;;;;;39.83;9.68;;;18.30;45.30;;;;;;4949847;28;20551;-61
2021/10/20 09:06:04;;;;;;;40.13;9.07;;;18.30;45.30;;;;;;4965312;28;20086;-65
2021/10/20 09:08:48;;;;;;;43.88;8.77;;;18.20;45.30;;;;;;4950212;28;20104;-64
2021/10/20 09:11:33;;;;;;;39.25;9.32;;;18.30;44.80;;;;;;4952061;28;20589;-63
2021/10/20 09:14:11;;;;;;;41.17;9.55;;;18.20;45.10;;;;;;4965345;28;20090;-65
2021/10/20 09:16:40;;;;;;;40.10;9.95;;;18.10;45.20;;;;;;4951928;28;20111;-64
2021/10/20 09:19:34;;;;;;;37.38;9.18;;;18.10;45.60;;;;;;4932602;28;20088;-62
2021/10/20 09:22:09;;;;;;;33.28;9.45;;;18.20;46.50;;;;;;4949435;28;20450;-65
2021/10/20 09:24:41;;;;;;;37.75;8.93;;;18.20;46.30;;;;;;4948380;28;20159;-62
2021/10/20 09:27:24;;;;;;;35.85;9.63;;;18.20;45.80;;;;;;4962976;28;20518;-62
2021/10/20 09:30:14;;;;;;;35.00;8.60;;;18.10;45.90;;;;;;4947218;28;20099;-64
2021/10/20 09:32:41;;;;;;;29.13;7.93;;;18.00;46.10;;;;;;4950497;28;20087;-65
2021/10/20 09:35:11;;;;;;;37.38;8.32;;;18.10;45.70;;;;;;4950166;28;20547;-63
2021/10/20 09:37:42;;;;;;;27.08;8.27;;;18.00;45.40;;;;;;4964726;28;20090;-63
2021/10/20 09:40:11;;;;;;;35.58;7.57;;;18.00;46.10;;;;;;4933166;28;20211;-65
2021/10/20 09:42:44;;;;;;;29.80;6.90;;;18.00;46.60;;;;;;4965457;28;20530;-63
2021/10/20 09:45:12;;;;;;;27.25;6.95;;;18.00;46.30;;;;;;4965279;28;20086;-64
2021/10/20 09:47:39;;;;;;;33.75;6.57;;;17.90;45.30;;;;;;4949341;28;20091;-65
2021/10/20 09:50:06;;;;;;;23.70;5.75;;;17.90;44.80;;;;;;4951177;28;20155;-62
2021/10/20 09:52:50;;;;;;;27.35;6.05;;;17.90;44.60;;;;;;4950977;28;20072;-62
2021/10/20 09:55:29;;;;;;;24.90;5.25;;;17.80;44.40;;;;;;4935925;28;20126;-62
2021/10/20 09:58:03;;;;;;;19.55;4.28;;;17.70;44.50;;;;;;4949003;28;20095;-63
2021/10/20 10:00:30;;;;;;;15.43;4.00;;;17.60;43.50;;;;;;4949631;28;20576;-63
2021/10/20 10:02:57;;;;;;;17.98;3.85;;;17.60;43.30;;;;;;4964788;28;20076;-65
2021/10/20 10:05:26;;;;;;;16.40;3.55;;;17.60;42.50;;;;;;4964050;28;20477;-63
2021/10/20 10:07:52;;;;;;;21.65;3.22;;;17.70;42.60;;;;;;4949732;28;20096;-62
2021/10/20 10:10:18;;;;;;;;;;;17.70;41.20;;;;;;4964760;28;20090;-63
2021/10/20 10:12:46;;;;;;;12.55;3.15;;;17.70;41.00;;;;;;4949777;28;19973;-62
2021/10/20 10:15:16;;;;;;;15.00;3.28;;;17.70;40.80;;;;;;4948238;28;20566;-65
2021/10/20 10:17:44;;;;;;;17.73;2.90;;;17.70;40.10;;;;;;4951135;28;20072;-63
2021/10/20 10:20:16;;;;;;;11.18;2.55;;;17.70;39.50;;;;;;4950171;28;20102;-65
2021/10/20 10:22:55;;;;;;;17.15;3.88;;;17.70;39.10;;;;;;4948423;28;20503;-64
2021/10/20 10:25:36;;;;;;;14.13;3.40;;;17.60;39.10;;;;;;4952652;28;20115;-63
2021/10/20 10:28:22;;;;;;;13.90;3.88;;;17.60;39.70;;;;;;4950358;28;20597;-63
2021/10/20 10:30:56;;;;;;;19.52;4.47;;;17.60;39.30;;;;;;4948354;28;20119;-62
2021/10/20 10:33:28;;;;;;;20.85;4.30;;;17.40;39.20;;;;;;4964687;28;20082;-62
2021/10/20 10:36:19;;;;;;;21.75;3.80;;;17.40;39.20;;;;;;4949154;28;20127;-62
2021/10/20 10:38:53;;;;;;;18.05;5.03;;;17.40;39.40;;;;;;4952420;28;20095;-64
2021/10/20 10:41:29;;;;;;;20.95;4.25;;;17.40;39.60;;;;;;4953002;28;20071;-62
2021/10/20 10:44:02;;;;;;;19.45;4.30;;;17.40;39.70;;;;;;4952777;28;20138;-62
2021/10/20 10:46:36;;;;;;;11.50;3.63;;;17.40;39.90;;;;;;4968197;28;20781;-64
2021/10/20 10:49:04;;;;;;;18.23;4.35;;;17.30;39.20;;;;;;4967385;28;20076;-63
2021/10/20 10:51:31;;;;;;;17.77;3.95;;;17.30;39.20;;;;;;4968595;28;20082;-61
2021/10/20 10:53:59;;;;;;;17.55;3.63;;;17.40;39.30;;;;;;4968661;28;20080;-64
2021/10/20 10:56:26;;;;;;;15.23;4.32;;;17.30;39.50;;;;;;4967835;28;20080;-63
2021/10/20 10:59:10;;;;;;;23.75;4.65;;;17.20;38.60;;;;;;4951664;28;20099;-62
2021/10/20 11:01:44;;;;;;;20.35;3.70;;;17.10;38.10;;;;;;4952577;28;20079;-64
2021/10/20 11:04:20;;;;;;;12.23;3.25;;;17.10;38.30;;;;;;4951995;28;20082;-64
2021/10/20 11:06:48;;;;;;;12.52;3.35;;;17.10;38.80;;;;;;4949690;28;20091;-62
2021/10/20 11:09:21;;;;;;;19.67;3.42;;;17.10;38.80;;;;;;4967022;28;20083;-63
2021/10/20 11:11:53;;;;;;;21.35;3.60;;;17.10;38.40;;;;;;4952754;28;20527;-63
2021/10/20 11:14:27;;;;;;;14.20;3.50;;;17.10;39.20;;;;;;4967522;28;20113;-65
2021/10/20 11:17:19;;;;;;;13.25;4.72;;;17.10;39.30;;;;;;4936166;28;20122;-63
2021/10/20 11:19:46;;;;;;;19.50;3.88;;;17.00;38.70;;;;;;4947510;28;20465;-64
2021/10/20 11:22:21;;;;;;;19.73;4.13;;;16.90;38.60;;;;;;4951709;28;20146;-62
2021/10/20 11:24:49;;;;;;;17.05;3.83;;;16.90;39.20;;;;;;4952510;28;20122;-62
2021/10/20 11:27:20;;;;;;;15.30;3.63;;;17.00;39.20;;;;;;4950809;28;20473;-62
2021/10/20 11:29:50;;;;;;;16.48;4.20;;;17.00;39.40;;;;;;4954622;28;20099;-62
2021/10/20 11:32:17;;;;;;;10.82;4.50;;;17.00;38.70;;;;;;4953394;28;20481;-61
2021/10/20 11:34:45;;;;;;;15.52;6.22;;;16.90;38.30;;;;;;4951183;28;20092;-61
2021/10/20 11:37:17;;;;;;;11.57;5.38;;;16.90;38.20;;;;;;4967179;28;20086;-61
2021/10/20 11:40:01;;;;;;;13.38;5.10;;;16.90;38.30;;;;;;4967730;28;20095;-61
2021/10/20 11:42:28;;;;;;;12.68;4.07;;;16.90;38.60;;;;;;4966536;28;20444;-61
2021/10/20 11:44:58;;;;;;;14.18;3.33;;;16.80;38.70;;;;;;4950955;28;20178;-64
2021/10/20 11:47:26;;;;;;;12.40;2.95;;;16.70;38.20;;;;;;4949815;28;20075;-62
2021/10/20 11:49:54;;;;;;;10.82;2.67;;;16.70;38.30;;;;;;4966476;28;20096;-60
2021/10/20 11:52:23;;;;;;;11.38;2.60;;;16.70;37.50;;;;;;4950632;28;20082;-63
2021/10/20 11:54:53;;;;;;;12.63;2.65;;;16.70;37.60;;;;;;4950099;28;20092;-62
2021/10/20 11:57:20;;;;;;;10.57;2.55;;;16.70;37.20;;;;;;4955103;28;20087;-63
2021/10/20 11:59:48;;;;;;;16.98;2.15;;;16.70;36.70;;;;;;4951349;28;20162;-62
2021/10/20 12:02:16;;;;;;;9.02;2.10;;;16.60;36.50;;;;;;4966861;28;20096;-61
2021/10/20 12:04:44;;;;;;;7.82;2.17;;;16.60;36.10;;;;;;4968569;28;20755;-62
2021/10/20 12:07:12;;;;;;;14.07;2.90;;;16.60;35.90;;;;;;4951764;28;20084;-63
2021/10/20 12:09:42;;;;;;;10.73;2.88;;;16.60;36.00;;;;;;4966726;28;20119;-64
2021/10/20 12:12:11;;;;;;;10.05;3.13;;;16.60;35.80;;;;;;4950045;28;20079;-64
2021/10/20 12:14:39;;;;;;;10.40;2.80;;;16.50;35.90;;;;;;4965808;28;20134;-64
2021/10/20 12:17:07;;;;;;;8.93;2.72;;;16.50;36.10;;;;;;4954943;28;20092;-63
2021/10/20 12:19:37;;;;;;;9.07;2.40;;;16.40;36.40;;;;;;4965774;28;20506;-62
2021/10/20 12:22:09;;;;;;;12.88;2.03;;;16.40;36.70;;;;;;4965809;28;20076;-64
2021/10/20 12:24:45;;;;;;;12.25;2.10;;;16.40;37.00;;;;;;4934776;28;20111;-63
2021/10/20 12:27:12;;;;;;;9.03;1.67;;;16.30;37.60;;;;;;4951915;28;20111;-64
2021/10/20 12:29:44;;;;;;;7.95;1.85;;;16.40;37.90;;;;;;4951725;28;20123;-63
2021/10/20 12:32:18;;;;;;;10.10;1.90;;;16.50;38.60;;;;;;4966861;28;20119;-64
2021/10/20 12:34:56;;;;;;;16.17;2.00;;;16.50;38.60;;;;;;4966293;28;20094;-62
2021/10/20 12:37:35;;;;;;;13.13;2.13;;;16.50;39.60;;;;;;4965710;28;20094;-61
2021/10/20 12:40:21;;;;;;;11.07;2.40;;;16.50;40.30;;;;;;4950661;28;20122;-63
2021/10/20 12:42:58;;;;;;;16.27;2.55;;;16.50;40.50;;;;;;4951148;28;20118;-63
2021/10/20 12:45:25;;;;;;;;;;;16.50;41.00;;;;;;4967214;28;20134;-63
2021/10/20 12:47:54;;;;;;;16.37;2.77;;;16.50;41.20;;;;;;4953653;28;19966;-62